sensor_id;sensor_type;location;lat;lon;timestamp;pressure;altitude;pressure_sealevel;temperature;humidity
9077;BME280;4574;51.072;17.174;2023-05-02T00:00:05;99901.22;;;14.40;88.43
9077;BME280;4574;51.072;17.174;2023-05-02T00:02:34;99893.25;;;14.40;89.66
9077;BME280;4574;51.072;17.174;2023-05-02T00:05:04;99891.94;;;14.36;89.16
9077;BME280;4574;51.072;17.174;2023-05-02T00:07:37;99894.97;;;14.33;90.21
9077;BME280;4574;51.072;17.174;2023-05-02T00:10:07;99894.03;;;14.26;91.24
9077;BME280;4574;51.072;17.174;2023-05-02T00:12:36;99884.09;;;14.20;91.18
9077;BME280;4574;51.072;17.174;2023-05-02T00:15:05;99886.25;;;14.16;91.60
9077;BME280;4574;51.072;17.174;2023-05-02T00:17:34;99885.59;;;14.14;90.74
9077;BME280;4574;51.072;17.174;2023-05-02T00:20:04;99875.81;;;14.07;92.07
9077;BME280;4574;51.072;17.174;2023-05-02T00:22:36;99884.09;;;14.12;92.09
9077;BME280;4574;51.072;17.174;2023-05-02T00:25:07;99884.81;;;14.06;91.97
9077;BME280;4574;51.072;17.174;2023-05-02T00:27:35;99878.84;;;14.04;92.42
9077;BME280;4574;51.072;17.174;2023-05-02T00:30:05;99879.84;;;14.03;92.85
9077;BME280;4574;51.072;17.174;2023-05-02T00:32:34;99862.94;;;13.96;92.56
9077;BME280;4574;51.072;17.174;2023-05-02T00:35:03;99882.66;;;14.01;92.32
9077;BME280;4574;51.072;17.174;2023-05-02T00:37:32;99877.03;;;13.96;92.57
9077;BME280;4574;51.072;17.174;2023-05-02T00:40:04;99865.44;;;13.89;93.23
9077;BME280;4574;51.072;17.174;2023-05-02T00:42:34;99871.06;;;13.94;92.46
9077;BME280;4574;51.072;17.174;2023-05-02T00:45:03;99877.25;;;13.95;92.48
9077;BME280;4574;51.072;17.174;2023-05-02T00:47:33;99872.06;;;13.93;92.47
9077;BME280;4574;51.072;17.174;2023-05-02T00:50:01;99866.94;;;13.92;93.91
9077;BME280;4574;51.072;17.174;2023-05-02T00:52:33;99863.63;;;13.90;92.26
9077;BME280;4574;51.072;17.174;2023-05-02T00:55:03;99869.97;;;13.89;91.98
9077;BME280;4574;51.072;17.174;2023-05-02T00:57:33;99872.28;;;13.92;92.28
9077;BME280;4574;51.072;17.174;2023-05-02T01:00:02;99865.28;;;13.91;91.92
9077;BME280;4574;51.072;17.174;2023-05-02T01:02:39;99861.97;;;13.89;92.97
9077;BME280;4574;51.072;17.174;2023-05-02T01:05:16;99866.81;;;13.85;93.41
9077;BME280;4574;51.072;17.174;2023-05-02T01:08:02;99861.84;;;13.82;93.01
9077;BME280;4574;51.072;17.174;2023-05-02T01:10:48;99867.34;;;13.81;93.34
9077;BME280;4574;51.072;17.174;2023-05-02T01:13:21;99876.84;;;13.75;93.59
9077;BME280;4574;51.072;17.174;2023-05-02T01:15:53;99875.53;;;13.71;94.01
9077;BME280;4574;51.072;17.174;2023-05-02T01:18:25;99869.91;;;13.66;94.59
9077;BME280;4574;51.072;17.174;2023-05-02T01:20:59;99876.78;;;13.61;94.77
9077;BME280;4574;51.072;17.174;2023-05-02T01:23:34;99881.09;;;13.62;93.96
9077;BME280;4574;51.072;17.174;2023-05-02T01:26:15;99877.59;;;13.61;94.50
9077;BME280;4574;51.072;17.174;2023-05-02T01:28:54;99876.94;;;13.59;94.96
9077;BME280;4574;51.072;17.174;2023-05-02T01:31:25;99867.44;;;13.65;93.53
9077;BME280;4574;51.072;17.174;2023-05-02T01:33:57;99868.91;;;13.67;94.09
9077;BME280;4574;51.072;17.174;2023-05-02T01:36:29;99870.75;;;13.67;93.63
9077;BME280;4574;51.072;17.174;2023-05-02T01:38:59;99877.09;;;13.66;94.09
9077;BME280;4574;51.072;17.174;2023-05-02T01:41:30;99881.09;;;13.62;94.58
9077;BME280;4574;51.072;17.174;2023-05-02T01:44:01;99881.59;;;13.57;94.50
9077;BME280;4574;51.072;17.174;2023-05-02T01:46:32;99869.34;;;13.48;95.08
9077;BME280;4574;51.072;17.174;2023-05-02T01:49:04;99878.31;;;13.47;94.57
9077;BME280;4574;51.072;17.174;2023-05-02T01:51:36;99866.72;;;13.40;95.34
9077;BME280;4574;51.072;17.174;2023-05-02T01:54:08;99868.56;;;13.32;96.76
9077;BME280;4574;51.072;17.174;2023-05-02T01:56:38;99870.56;;;13.30;97.04
9077;BME280;4574;51.072;17.174;2023-05-02T01:59:12;99873.41;;;13.29;97.47
9077;BME280;4574;51.072;17.174;2023-05-02T02:01:42;99877.09;;;13.28;97.83
9077;BME280;4574;51.072;17.174;2023-05-02T02:04:13;99872.13;;;13.25;96.75
9077;BME280;4574;51.072;17.174;2023-05-02T02:06:45;99881.91;;;13.24;97.00
9077;BME280;4574;51.072;17.174;2023-05-02T02:09:15;99874.56;;;13.26;96.95
9077;BME280;4574;51.072;17.174;2023-05-02T02:11:49;99871.56;;;13.29;97.53
9077;BME280;4574;51.072;17.174;2023-05-02T02:14:24;99877.56;;;13.31;97.15
9077;BME280;4574;51.072;17.174;2023-05-02T02:16:55;99883.03;;;13.38;97.44
9077;BME280;4574;51.072;17.174;2023-05-02T02:19:26;99884.50;;;13.40;96.91
9077;BME280;4574;51.072;17.174;2023-05-02T02:21:57;99887.47;;;13.45;96.22
9077;BME280;4574;51.072;17.174;2023-05-02T02:24:26;99892.44;;;13.48;96.21
9077;BME280;4574;51.072;17.174;2023-05-02T02:26:56;99889.44;;;13.51;95.51
9077;BME280;4574;51.072;17.174;2023-05-02T02:29:26;99895.25;;;13.54;95.65
9077;BME280;4574;51.072;17.174;2023-05-02T02:31:55;99900.38;;;13.56;96.07
9077;BME280;4574;51.072;17.174;2023-05-02T02:34:25;99903.03;;;13.56;95.52
9077;BME280;4574;51.072;17.174;2023-05-02T02:37:06;99910.00;;;13.57;95.58
9077;BME280;4574;51.072;17.174;2023-05-02T02:39:45;99911.66;;;13.58;95.79
9077;BME280;4574;51.072;17.174;2023-05-02T02:42:26;99918.19;;;13.55;95.95
9077;BME280;4574;51.072;17.174;2023-05-02T02:45:11;99920.00;;;13.55;95.79
9077;BME280;4574;51.072;17.174;2023-05-02T02:47:49;99923.50;;;13.55;96.10
9077;BME280;4574;51.072;17.174;2023-05-02T02:50:23;99922.66;;;13.55;96.16
9077;BME280;4574;51.072;17.174;2023-05-02T02:52:59;99927.19;;;13.46;98.24
9077;BME280;4574;51.072;17.174;2023-05-02T02:55:39;99933.66;;;13.44;97.21
9077;BME280;4574;51.072;17.174;2023-05-02T02:58:19;99909.44;;;13.31;98.14
9077;BME280;4574;51.072;17.174;2023-05-02T03:00:50;99932.69;;;13.37;97.77
9077;BME280;4574;51.072;17.174;2023-05-02T03:03:21;99943.50;;;13.43;97.32
9077;BME280;4574;51.072;17.174;2023-05-02T03:05:55;99943.66;;;13.42;98.31
9077;BME280;4574;51.072;17.174;2023-05-02T03:08:24;99938.84;;;13.38;98.45
9077;BME280;4574;51.072;17.174;2023-05-02T03:10:53;99939.66;;;13.38;97.93
9077;BME280;4574;51.072;17.174;2023-05-02T03:13:21;99942.66;;;13.35;99.13
9077;BME280;4574;51.072;17.174;2023-05-02T03:16:23;99948.66;;;13.37;99.13
9077;BME280;4574;51.072;17.174;2023-05-02T03:18:56;99943.00;;;13.32;99.31
9077;BME280;4574;51.072;17.174;2023-05-02T03:21:25;99953.84;;;13.31;99.19
9077;BME280;4574;51.072;17.174;2023-05-02T03:23:53;99958.66;;;13.27;100.00
9077;BME280;4574;51.072;17.174;2023-05-02T03:26:22;99948.66;;;13.29;99.42
9077;BME280;4574;51.072;17.174;2023-05-02T03:28:51;99957.66;;;13.28;99.88
9077;BME280;4574;51.072;17.174;2023-05-02T03:31:21;99963.31;;;13.25;99.09
9077;BME280;4574;51.072;17.174;2023-05-02T03:33:52;99968.63;;;13.25;99.23
9077;BME280;4574;51.072;17.174;2023-05-02T03:36:21;99975.59;;;13.26;98.47
9077;BME280;4574;51.072;17.174;2023-05-02T03:38:49;99977.25;;;13.27;98.96
9077;BME280;4574;51.072;17.174;2023-05-02T03:41:18;99979.25;;;13.25;98.70
9077;BME280;4574;51.072;17.174;2023-05-02T03:43:47;99981.56;;;13.28;98.51
9077;BME280;4574;51.072;17.174;2023-05-02T03:46:15;99980.91;;;13.26;98.90
9077;BME280;4574;51.072;17.174;2023-05-02T03:48:46;99983.56;;;13.26;98.81
9077;BME280;4574;51.072;17.174;2023-05-02T03:51:14;99991.22;;;13.29;98.49
9077;BME280;4574;51.072;17.174;2023-05-02T03:53:43;99990.22;;;13.30;98.55
9077;BME280;4574;51.072;17.174;2023-05-02T03:56:11;99991.53;;;13.26;99.52
9077;BME280;4574;51.072;17.174;2023-05-02T03:58:47;99986.56;;;13.23;99.66
9077;BME280;4574;51.072;17.174;2023-05-02T04:01:15;100003.84;;;13.27;99.61
9077;BME280;4574;51.072;17.174;2023-05-02T04:03:45;100000.84;;;13.30;99.04
9077;BME280;4574;51.072;17.174;2023-05-02T04:06:14;100011.31;;;13.32;99.60
9077;BME280;4574;51.072;17.174;2023-05-02T04:08:43;100009.31;;;13.34;99.93
9077;BME280;4574;51.072;17.174;2023-05-02T04:11:11;100012.63;;;13.36;99.53
9077;BME280;4574;51.072;17.174;2023-05-02T04:13:40;100021.28;;;13.38;98.46
9077;BME280;4574;51.072;17.174;2023-05-02T04:16:08;100024.75;;;13.38;99.85
9077;BME280;4574;51.072;17.174;2023-05-02T04:18:37;100029.06;;;13.39;99.12
9077;BME280;4574;51.072;17.174;2023-05-02T04:21:08;100030.72;;;13.40;99.18
9077;BME280;4574;51.072;17.174;2023-05-02T04:23:37;100036.56;;;13.43;98.93
9077;BME280;4574;51.072;17.174;2023-05-02T04:26:05;100046.34;;;13.43;99.54
9077;BME280;4574;51.072;17.174;2023-05-02T04:28:34;100047.19;;;13.43;99.65
9077;BME280;4574;51.072;17.174;2023-05-02T04:31:02;100057.81;;;13.43;100.00
9077;BME280;4574;51.072;17.174;2023-05-02T04:33:31;100053.84;;;13.47;99.75
9077;BME280;4574;51.072;17.174;2023-05-02T04:36:00;100057.16;;;13.49;100.00
9077;BME280;4574;51.072;17.174;2023-05-02T04:38:30;100064.13;;;13.50;99.67
9077;BME280;4574;51.072;17.174;2023-05-02T04:40:59;100056.16;;;13.50;100.00
9077;BME280;4574;51.072;17.174;2023-05-02T04:43:35;100073.91;;;13.50;100.00
9077;BME280;4574;51.072;17.174;2023-05-02T04:46:04;100079.09;;;13.51;100.00
9077;BME280;4574;51.072;17.174;2023-05-02T04:48:32;100071.91;;;13.52;100.00
9077;BME280;4574;51.072;17.174;2023-05-02T04:51:01;100080.56;;;13.54;100.00
9077;BME280;4574;51.072;17.174;2023-05-02T04:53:31;100091.19;;;13.54;100.00
9077;BME280;4574;51.072;17.174;2023-05-02T04:56:00;100091.19;;;13.54;100.00
9077;BME280;4574;51.072;17.174;2023-05-02T04:58:28;100100.03;;;13.54;100.00
9077;BME280;4574;51.072;17.174;2023-05-02T05:00:57;100097.53;;;13.53;100.00
9077;BME280;4574;51.072;17.174;2023-05-02T05:03:26;100088.41;;;13.47;100.00
9077;BME280;4574;51.072;17.174;2023-05-02T05:05:55;100100.84;;;13.47;100.00
9077;BME280;4574;51.072;17.174;2023-05-02T05:08:24;100089.41;;;13.46;100.00
9077;BME280;4574;51.072;17.174;2023-05-02T05:10:54;100104.50;;;13.46;100.00
9077;BME280;4574;51.072;17.174;2023-05-02T05:13:23;100104.69;;;13.44;100.00
9077;BME280;4574;51.072;17.174;2023-05-02T05:15:52;100110.16;;;13.43;100.00
9077;BME280;4574;51.072;17.174;2023-05-02T05:18:21;100106.19;;;13.39;100.00
9077;BME280;4574;51.072;17.174;2023-05-02T05:20:49;100106.69;;;13.35;100.00
9077;BME280;4574;51.072;17.174;2023-05-02T05:23:18;100113.69;;;13.36;100.00
9077;BME280;4574;51.072;17.174;2023-05-02T05:25:46;100118.16;;;13.35;100.00
9077;BME280;4574;51.072;17.174;2023-05-02T05:28:16;100113.34;;;13.31;100.00
9077;BME280;4574;51.072;17.174;2023-05-02T05:30:45;100124.63;;;13.33;100.00
9077;BME280;4574;51.072;17.174;2023-05-02T05:33:13;100113.16;;;13.32;100.00
9077;BME280;4574;51.072;17.174;2023-05-02T05:35:42;100127.78;;;13.36;100.00
9077;BME280;4574;51.072;17.174;2023-05-02T05:38:11;100123.66;;;13.34;100.00
9077;BME280;4574;51.072;17.174;2023-05-02T05:40:39;100122.78;;;13.41;100.00
9077;BME280;4574;51.072;17.174;2023-05-02T05:43:08;100132.44;;;13.42;100.00
9077;BME280;4574;51.072;17.174;2023-05-02T05:45:40;100138.09;;;13.39;100.00
9077;BME280;4574;51.072;17.174;2023-05-02T05:48:08;100137.09;;;13.40;100.00
9077;BME280;4574;51.072;17.174;2023-05-02T05:50:37;100137.75;;;13.42;100.00
9077;BME280;4574;51.072;17.174;2023-05-02T05:53:06;100146.91;;;13.47;100.00
9077;BME280;4574;51.072;17.174;2023-05-02T05:55:34;100147.25;;;13.52;100.00
9077;BME280;4574;51.072;17.174;2023-05-02T05:58:07;100149.72;;;13.54;100.00
9077;BME280;4574;51.072;17.174;2023-05-02T06:00:36;100146.56;;;13.58;100.00
9077;BME280;4574;51.072;17.174;2023-05-02T06:03:07;100146.22;;;13.61;100.00
9077;BME280;4574;51.072;17.174;2023-05-02T06:05:36;100149.38;;;13.57;100.00
9077;BME280;4574;51.072;17.174;2023-05-02T06:08:04;100159.38;;;13.63;100.00
9077;BME280;4574;51.072;17.174;2023-05-02T06:10:33;100161.03;;;13.64;100.00
9077;BME280;4574;51.072;17.174;2023-05-02T06:13:01;100164.19;;;13.67;100.00
9077;BME280;4574;51.072;17.174;2023-05-02T06:15:32;100170.34;;;13.68;100.00
9077;BME280;4574;51.072;17.174;2023-05-02T06:18:01;100174.66;;;13.69;100.00
9077;BME280;4574;51.072;17.174;2023-05-02T06:20:31;100173.34;;;13.73;100.00
9077;BME280;4574;51.072;17.174;2023-05-02T06:23:00;100173.00;;;13.76;100.00
9077;BME280;4574;51.072;17.174;2023-05-02T06:25:28;100179.13;;;13.76;100.00
9077;BME280;4574;51.072;17.174;2023-05-02T06:27:58;100180.66;;;13.79;100.00
9077;BME280;4574;51.072;17.174;2023-05-02T06:30:27;100169.69;;;13.74;100.00
9077;BME280;4574;51.072;17.174;2023-05-02T06:32:55;100178.47;;;13.82;100.00
9077;BME280;4574;51.072;17.174;2023-05-02T06:35:24;100181.13;;;13.82;100.00
9077;BME280;4574;51.072;17.174;2023-05-02T06:37:54;100182.31;;;13.80;100.00
9077;BME280;4574;51.072;17.174;2023-05-02T06:40:23;100194.94;;;13.86;100.00
9077;BME280;4574;51.072;17.174;2023-05-02T06:42:52;100200.59;;;13.91;100.00
9077;BME280;4574;51.072;17.174;2023-05-02T06:45:20;100197.75;;;13.92;100.00
9077;BME280;4574;51.072;17.174;2023-05-02T06:47:49;100199.41;;;13.93;100.00
9077;BME280;4574;51.072;17.174;2023-05-02T06:50:18;100204.56;;;13.95;100.00
9077;BME280;4574;51.072;17.174;2023-05-02T06:52:47;100194.41;;;13.90;100.00
9077;BME280;4574;51.072;17.174;2023-05-02T06:55:17;100211.88;;;14.01;100.00
9077;BME280;4574;51.072;17.174;2023-05-02T06:57:45;100208.88;;;14.04;100.00
9077;BME280;4574;51.072;17.174;2023-05-02T07:00:15;100220.00;;;14.07;100.00
9077;BME280;4574;51.072;17.174;2023-05-02T07:02:45;100217.84;;;14.11;100.00
9077;BME280;4574;51.072;17.174;2023-05-02T07:05:14;100219.69;;;14.18;100.00
9077;BME280;4574;51.072;17.174;2023-05-02T07:07:43;100222.69;;;14.23;100.00
9077;BME280;4574;51.072;17.174;2023-05-02T07:10:12;100227.19;;;14.23;100.00
9077;BME280;4574;51.072;17.174;2023-05-02T07:12:42;100226.34;;;14.22;100.00
9077;BME280;4574;51.072;17.174;2023-05-02T07:15:10;100220.03;;;14.15;100.00
9077;BME280;4574;51.072;17.174;2023-05-02T07:17:42;100241.97;;;14.25;100.00
9077;BME280;4574;51.072;17.174;2023-05-02T07:20:13;100235.31;;;14.29;100.00
9077;BME280;4574;51.072;17.174;2023-05-02T07:22:42;100233.50;;;14.30;100.00
9077;BME280;4574;51.072;17.174;2023-05-02T07:25:11;100236.47;;;14.35;100.00
9077;BME280;4574;51.072;17.174;2023-05-02T07:27:39;100239.81;;;14.37;100.00
9077;BME280;4574;51.072;17.174;2023-05-02T07:30:10;100242.13;;;14.40;100.00
9077;BME280;4574;51.072;17.174;2023-05-02T07:32:39;100250.47;;;14.37;100.00
9077;BME280;4574;51.072;17.174;2023-05-02T07:35:11;100247.47;;;14.40;100.00
9077;BME280;4574;51.072;17.174;2023-05-02T07:37:39;100250.78;;;14.42;100.00
9077;BME280;4574;51.072;17.174;2023-05-02T07:40:11;100255.09;;;14.43;100.00
9077;BME280;4574;51.072;17.174;2023-05-02T07:42:40;100232.47;;;14.39;100.00
9077;BME280;4574;51.072;17.174;2023-05-02T07:45:11;100258.09;;;14.48;100.00
9077;BME280;4574;51.072;17.174;2023-05-02T07:47:40;100261.91;;;14.53;100.00
9077;BME280;4574;51.072;17.174;2023-05-02T07:50:09;100272.56;;;14.61;100.00
9077;BME280;4574;51.072;17.174;2023-05-02T07:52:39;100268.69;;;14.64;100.00
9077;BME280;4574;51.072;17.174;2023-05-02T07:55:09;100276.66;;;14.72;100.00
9077;BME280;4574;51.072;17.174;2023-05-02T07:57:38;100276.97;;;14.76;100.00
9077;BME280;4574;51.072;17.174;2023-05-02T08:00:08;100272.97;;;14.80;100.00
9077;BME280;4574;51.072;17.174;2023-05-02T08:02:40;100275.28;;;14.83;100.00
9077;BME280;4574;51.072;17.174;2023-05-02T08:05:09;100277.59;;;14.86;100.00
9077;BME280;4574;51.072;17.174;2023-05-02T08:07:38;100279.59;;;14.92;100.00
9077;BME280;4574;51.072;17.174;2023-05-02T08:10:07;100280.09;;;14.96;100.00
9077;BME280;4574;51.072;17.174;2023-05-02T08:12:37;100284.72;;;15.02;100.00
9077;BME280;4574;51.072;17.174;2023-05-02T08:15:08;100283.19;;;15.07;100.00
9077;BME280;4574;51.072;17.174;2023-05-02T08:17:40;100289.84;;;15.11;100.00
9077;BME280;4574;51.072;17.174;2023-05-02T08:20:10;100285.47;;;15.18;100.00
9077;BME280;4574;51.072;17.174;2023-05-02T08:22:39;100281.94;;;15.26;100.00
9077;BME280;4574;51.072;17.174;2023-05-02T08:25:08;100277.59;;;15.33;100.00
9077;BME280;4574;51.072;17.174;2023-05-02T08:27:37;100283.44;;;15.36;100.00
9077;BME280;4574;51.072;17.174;2023-05-02T08:30:06;100285.38;;;15.42;100.00
9077;BME280;4574;51.072;17.174;2023-05-02T08:32:35;100291.84;;;15.48;100.00
9077;BME280;4574;51.072;17.174;2023-05-02T08:35:06;100292.16;;;15.53;100.00
9077;BME280;4574;51.072;17.174;2023-05-02T08:37:35;100288.31;;;15.55;100.00
9077;BME280;4574;51.072;17.174;2023-05-02T08:40:05;100287.97;;;15.58;100.00
9077;BME280;4574;51.072;17.174;2023-05-02T08:42:41;100297.94;;;15.64;100.00
9077;BME280;4574;51.072;17.174;2023-05-02T08:45:12;100295.06;;;15.66;100.00
9077;BME280;4574;51.072;17.174;2023-05-02T08:47:43;100306.69;;;15.73;100.00
9077;BME280;4574;51.072;17.174;2023-05-02T08:50:15;100312.16;;;15.79;100.00
9077;BME280;4574;51.072;17.174;2023-05-02T08:52:46;100304.81;;;15.81;100.00
9077;BME280;4574;51.072;17.174;2023-05-02T08:55:17;100311.09;;;15.88;100.00
9077;BME280;4574;51.072;17.174;2023-05-02T08:57:55;100292.28;;;15.82;100.00
9077;BME280;4574;51.072;17.174;2023-05-02T09:00:25;100308.06;;;15.91;100.00
9077;BME280;4574;51.072;17.174;2023-05-02T09:03:03;100316.03;;;15.99;100.00
9077;BME280;4574;51.072;17.174;2023-05-02T09:05:39;100316.41;;;16.10;100.00
9077;BME280;4574;51.072;17.174;2023-05-02T09:08:08;100320.06;;;16.17;100.00
9077;BME280;4574;51.072;17.174;2023-05-02T09:10:38;100328.16;;;16.24;100.00
9077;BME280;4574;51.072;17.174;2023-05-02T09:13:30;100338.13;;;16.30;100.00
9077;BME280;4574;51.072;17.174;2023-05-02T09:16:01;100332.47;;;16.33;100.00
9077;BME280;4574;51.072;17.174;2023-05-02T09:18:31;100321.78;;;16.33;100.00
9077;BME280;4574;51.072;17.174;2023-05-02T09:21:04;100338.03;;;16.46;100.00
9077;BME280;4574;51.072;17.174;2023-05-02T09:23:40;100333.97;;;16.50;100.00
9077;BME280;4574;51.072;17.174;2023-05-02T09:26:14;100341.91;;;16.58;100.00
9077;BME280;4574;51.072;17.174;2023-05-02T09:28:43;100347.16;;;16.66;100.00
9077;BME280;4574;51.072;17.174;2023-05-02T09:31:13;100342.47;;;16.68;100.00
9077;BME280;4574;51.072;17.174;2023-05-02T09:33:53;100353.38;;;16.66;100.00
9077;BME280;4574;51.072;17.174;2023-05-02T09:36:23;100351.72;;;16.65;100.00
9077;BME280;4574;51.072;17.174;2023-05-02T09:39:07;100354.66;;;16.70;100.00
9077;BME280;4574;51.072;17.174;2023-05-02T09:41:49;100353.28;;;16.74;100.00
9077;BME280;4574;51.072;17.174;2023-05-02T09:44:20;100359.94;;;16.78;100.00
9077;BME280;4574;51.072;17.174;2023-05-02T09:46:49;100365.34;;;16.85;100.00
9077;BME280;4574;51.072;17.174;2023-05-02T09:49:38;100363.59;;;16.92;100.00
9077;BME280;4574;51.072;17.174;2023-05-02T09:52:13;100368.59;;;16.95;100.00
9077;BME280;4574;51.072;17.174;2023-05-02T09:54:42;100377.38;;;17.03;100.00
9077;BME280;4574;51.072;17.174;2023-05-02T09:57:12;100378.50;;;17.09;100.00
9077;BME280;4574;51.072;17.174;2023-05-02T09:59:52;100369.16;;;17.19;100.00
9077;BME280;4574;51.072;17.174;2023-05-02T10:02:24;100367.59;;;17.25;100.00
9077;BME280;4574;51.072;17.174;2023-05-02T10:04:54;100367.69;;;17.31;100.00
9077;BME280;4574;51.072;17.174;2023-05-02T10:07:26;100375.91;;;17.44;100.00
9077;BME280;4574;51.072;17.174;2023-05-02T10:09:57;100379.69;;;17.50;100.00
9077;BME280;4574;51.072;17.174;2023-05-02T10:12:31;100377.56;;;17.59;100.00
9077;BME280;4574;51.072;17.174;2023-05-02T10:15:03;100374.41;;;17.70;100.00
9077;BME280;4574;51.072;17.174;2023-05-02T10:17:38;100371.59;;;17.78;100.00
9077;BME280;4574;51.072;17.174;2023-05-02T10:20:09;100379.16;;;17.89;100.00
9077;BME280;4574;51.072;17.174;2023-05-02T10:22:44;100373.28;;;18.00;100.00
9077;BME280;4574;51.072;17.174;2023-05-02T10:25:14;100374.78;;;18.03;100.00
9077;BME280;4574;51.072;17.174;2023-05-02T10:27:43;100375.53;;;17.97;100.00
9077;BME280;4574;51.072;17.174;2023-05-02T10:30:13;100369.22;;;18.04;100.00
9077;BME280;4574;51.072;17.174;2023-05-02T10:32:45;100379.81;;;18.12;100.00
9077;BME280;4574;51.072;17.174;2023-05-02T10:35:16;100382.19;;;18.22;100.00
9077;BME280;4574;51.072;17.174;2023-05-02T10:37:47;100382.63;;;18.25;100.00
9077;BME280;4574;51.072;17.174;2023-05-02T10:40:17;100381.22;;;18.29;100.00
9077;BME280;4574;51.072;17.174;2023-05-02T10:42:47;100385.44;;;18.38;100.00
9077;BME280;4574;51.072;17.174;2023-05-02T10:45:32;100385.91;;;18.42;99.42
9077;BME280;4574;51.072;17.174;2023-05-02T10:48:17;100388.38;;;18.43;100.00
9077;BME280;4574;51.072;17.174;2023-05-02T10:50:48;100394.44;;;18.52;100.00
9077;BME280;4574;51.072;17.174;2023-05-02T10:53:33;100388.88;;;18.53;98.22
9077;BME280;4574;51.072;17.174;2023-05-02T10:56:17;100386.84;;;18.55;99.03
9077;BME280;4574;51.072;17.174;2023-05-02T10:58:49;100383.59;;;18.60;97.45
9077;BME280;4574;51.072;17.174;2023-05-02T11:01:34;100390.78;;;18.59;96.12
9077;BME280;4574;51.072;17.174;2023-05-02T11:04:07;100389.13;;;18.58;94.96
9077;BME280;4574;51.072;17.174;2023-05-02T11:09:31;100390.84;;;18.66;92.53
9077;BME280;4574;51.072;17.174;2023-05-02T11:12:01;100398.31;;;18.70;93.35
9077;BME280;4574;51.072;17.174;2023-05-02T11:14:45;100396.28;;;18.72;91.67
9077;BME280;4574;51.072;17.174;2023-05-02T11:17:17;100397.66;;;18.68;89.51
9077;BME280;4574;51.072;17.174;2023-05-02T11:22:54;100398.81;;;18.59;89.33
9077;BME280;4574;51.072;17.174;2023-05-02T11:25:40;100407.50;;;18.61;88.10
9077;BME280;4574;51.072;17.174;2023-05-02T11:28:40;100415.31;;;18.56;85.72
9077;BME280;4574;51.072;17.174;2023-05-02T11:34:14;100419.91;;;18.62;84.37
9077;BME280;4574;51.072;17.174;2023-05-02T11:36:42;100413.13;;;18.66;81.44
9077;BME280;4574;51.072;17.174;2023-05-02T11:39:18;100419.41;;;18.52;75.66
9077;BME280;4574;51.072;17.174;2023-05-02T11:41:48;100425.84;;;18.58;74.76
9077;BME280;4574;51.072;17.174;2023-05-02T11:44:18;100424.63;;;18.60;75.56
9077;BME280;4574;51.072;17.174;2023-05-02T11:46:46;100426.34;;;18.68;77.58
9077;BME280;4574;51.072;17.174;2023-05-02T11:49:16;100434.47;;;18.74;78.23
9077;BME280;4574;51.072;17.174;2023-05-02T11:51:45;100435.28;;;18.75;76.46
9077;BME280;4574;51.072;17.174;2023-05-02T11:54:19;100432.03;;;18.79;75.69
9077;BME280;4574;51.072;17.174;2023-05-02T11:56:50;100434.13;;;18.84;78.17
9077;BME280;4574;51.072;17.174;2023-05-02T11:59:21;100440.19;;;18.92;77.22
9077;BME280;4574;51.072;17.174;2023-05-02T12:01:52;100439.41;;;18.98;75.66
9077;BME280;4574;51.072;17.174;2023-05-02T12:04:22;100432.25;;;19.05;76.82
9077;BME280;4574;51.072;17.174;2023-05-02T12:06:55;100433.13;;;19.12;76.13
9077;BME280;4574;51.072;17.174;2023-05-02T12:09:24;100433.63;;;19.22;76.41
9077;BME280;4574;51.072;17.174;2023-05-02T12:11:55;100426.44;;;19.29;76.60
9077;BME280;4574;51.072;17.174;2023-05-02T12:14:27;100430.19;;;19.34;73.84
9077;BME280;4574;51.072;17.174;2023-05-02T12:16:57;100433.09;;;19.39;72.16
9077;BME280;4574;51.072;17.174;2023-05-02T12:19:26;100430.00;;;19.42;74.88
9077;BME280;4574;51.072;17.174;2023-05-02T12:21:55;100431.50;;;19.45;68.89
9077;BME280;4574;51.072;17.174;2023-05-02T12:24:24;100431.31;;;19.53;72.87
9077;BME280;4574;51.072;17.174;2023-05-02T12:29:54;100435.03;;;19.52;70.22
9077;BME280;4574;51.072;17.174;2023-05-02T12:32:27;100434.66;;;19.55;70.90
9077;BME280;4574;51.072;17.174;2023-05-02T12:34:57;100446.69;;;19.65;71.33
9077;BME280;4574;51.072;17.174;2023-05-02T12:37:27;100439.69;;;19.71;71.87
9077;BME280;4574;51.072;17.174;2023-05-02T12:39:55;100430.59;;;19.72;72.32
9077;BME280;4574;51.072;17.174;2023-05-02T12:42:24;100438.06;;;19.83;71.29
9077;BME280;4574;51.072;17.174;2023-05-02T12:44:55;100436.22;;;19.83;68.80
9077;BME280;4574;51.072;17.174;2023-05-02T12:47:24;100430.19;;;19.75;71.74
9077;BME280;4574;51.072;17.174;2023-05-02T12:49:55;100443.44;;;19.83;71.22
9077;BME280;4574;51.072;17.174;2023-05-02T12:52:45;100452.13;;;19.85;70.51
9077;BME280;4574;51.072;17.174;2023-05-02T12:55:15;100451.28;;;19.78;71.99
9077;BME280;4574;51.072;17.174;2023-05-02T12:57:44;100472.94;;;19.70;71.81
9077;BME280;4574;51.072;17.174;2023-05-02T13:00:15;100473.75;;;19.09;75.04
9077;BME280;4574;51.072;17.174;2023-05-02T13:02:44;100481.78;;;18.40;79.65
9077;BME280;4574;51.072;17.174;2023-05-02T13:05:13;100495.97;;;17.76;82.31
9077;BME280;4574;51.072;17.174;2023-05-02T13:07:42;100489.53;;;17.42;84.50
9077;BME280;4574;51.072;17.174;2023-05-02T13:10:11;100486.44;;;17.16;87.18
9077;BME280;4574;51.072;17.174;2023-05-02T13:12:41;100483.44;;;17.33;88.14
9077;BME280;4574;51.072;17.174;2023-05-02T13:15:11;100492.28;;;16.97;89.67
9077;BME280;4574;51.072;17.174;2023-05-02T13:17:44;100494.91;;;17.05;90.30
9077;BME280;4574;51.072;17.174;2023-05-02T13:20:14;100489.28;;;17.14;90.59
9077;BME280;4574;51.072;17.174;2023-05-02T13:22:42;100494.06;;;16.82;90.76
9077;BME280;4574;51.072;17.174;2023-05-02T13:25:11;100497.09;;;16.79;90.54
9077;BME280;4574;51.072;17.174;2023-05-02T13:27:39;100493.94;;;16.98;90.08
9077;BME280;4574;51.072;17.174;2023-05-02T13:30:11;100489.06;;;17.01;89.68